Terminal Aerodrome Forecast
Issued by NWS Pittsburgh, PA

Current Version | Previous Version | Graphics & Text | Print | Product List | Glossary On
Versions: 1 2 3 4 5 6 7 8 9 10 11 12 13 14 15 16 17 18 19 20 21 22 23 24 25 26 27 28 29
000
FTUS41 KPBZ 181120
TAFPIT
TAF
KPIT 181120Z 1812/1918 25006KT P6SM SCT040
     FM190000 21005KT P6SM VCSH OVC050
     FM190300 20007KT P6SM -SHRA BKN020
     FM190700 26009KT P6SM -SHRA BKN015
     FM191200 28012G20KT 2SM -SHSN OVC012=

USA.gov is the U.S. government's official web portal to all federal, state and local government web resources and services.